createdAt,value
2022-07-31T00:01:21.399Z,15.31
2022-07-31T00:03:48.134Z,15.33
2022-07-31T00:06:15.062Z,15.27
2022-07-31T00:08:41.735Z,15.26
2022-07-31T00:11:11.697Z,15.28
2022-07-31T00:13:57.568Z,15.25
2022-07-31T00:16:25.567Z,15.27
2022-07-31T00:18:52.308Z,15.30
2022-07-31T00:21:19.151Z,15.31
2022-07-31T00:23:45.886Z,15.33
2022-07-31T00:26:12.567Z,15.31
2022-07-31T00:28:39.315Z,15.14
2022-07-31T00:31:05.971Z,15.28
2022-07-31T00:33:32.688Z,15.28
2022-07-31T00:35:59.366Z,15.20
2022-07-31T00:38:27.628Z,15.27
2022-07-31T00:40:54.606Z,15.29
2022-07-31T00:43:21.357Z,15.27
2022-07-31T00:45:56.306Z,15.22
2022-07-31T00:48:26.056Z,15.21
2022-07-31T00:50:54.735Z,15.16
2022-07-31T00:53:21.388Z,15.22
2022-07-31T00:55:51.733Z,15.20
2022-07-31T00:58:20.106Z,15.28
2022-07-31T01:00:47.607Z,15.32
2022-07-31T01:03:14.822Z,15.32
2022-07-31T01:05:41.919Z,15.32
2022-07-31T01:08:08.659Z,15.34
2022-07-31T01:10:50.378Z,15.33
2022-07-31T01:13:25.650Z,15.22
2022-07-31T01:15:54.212Z,15.21
2022-07-31T01:18:22.829Z,15.07
2022-07-31T01:20:49.983Z,15.06
2022-07-31T01:23:23.356Z,15.15
2022-07-31T01:26:02.209Z,15.12
2022-07-31T01:28:58.356Z,15.11
2022-07-31T01:31:35.580Z,15.11
2022-07-31T01:34:08.462Z,15.09
2022-07-31T01:36:37.229Z,15.02
2022-07-31T01:39:04.255Z,15.08
2022-07-31T01:41:35.072Z,15.11
2022-07-31T01:44:03.974Z,15.10
2022-07-31T01:46:31.085Z,15.12
2022-07-31T01:49:04.613Z,15.12
2022-07-31T01:51:32.013Z,15.13
2022-07-31T01:54:01.182Z,15.10
2022-07-31T01:56:30.200Z,15.11
2022-07-31T01:58:58.536Z,15.05
2022-07-31T02:01:27.484Z,15.06
2022-07-31T02:03:56.374Z,15.10
2022-07-31T02:06:23.800Z,15.03
2022-07-31T02:08:52.924Z,15.18
2022-07-31T02:11:20.332Z,15.16
2022-07-31T02:13:47.749Z,15.18
2022-07-31T02:16:15.474Z,15.26
2022-07-31T02:18:42.595Z,15.19
2022-07-31T02:21:09.440Z,15.18
2022-07-31T02:23:37.127Z,15.19
2022-07-31T02:26:07.247Z,15.12
2022-07-31T02:28:36.110Z,15.09
2022-07-31T02:31:03.177Z,15.12
2022-07-31T02:33:30.635Z,15.18
2022-07-31T02:35:58.170Z,15.14
2022-07-31T02:38:27.288Z,15.15
2022-07-31T02:40:57.917Z,15.12
2022-07-31T02:43:26.769Z,15.15
2022-07-31T02:45:55.118Z,15.14
2022-07-31T02:48:22.005Z,15.18
2022-07-31T02:50:48.865Z,15.15
2022-07-31T02:53:15.803Z,15.10
2022-07-31T02:55:44.698Z,15.14
2022-07-31T02:58:12.329Z,15.14
2022-07-31T03:00:39.240Z,15.19
2022-07-31T03:03:06.008Z,15.10
2022-07-31T03:05:32.730Z,15.11
2022-07-31T03:07:59.557Z,15.14
2022-07-31T03:10:26.249Z,15.16
2022-07-31T03:12:53.537Z,15.14
2022-07-31T03:15:23.694Z,15.07
2022-07-31T03:17:51.247Z,15.06
2022-07-31T03:20:18.195Z,15.08
2022-07-31T03:22:45.806Z,15.33
2022-07-31T03:25:21.342Z,15.50
2022-07-31T03:27:52.475Z,15.35
2022-07-31T03:30:25.455Z,15.26
2022-07-31T03:32:53.252Z,15.19
2022-07-31T03:35:20.161Z,15.12
2022-07-31T03:37:46.985Z,15.12
2022-07-31T03:40:13.983Z,15.17
2022-07-31T03:42:41.131Z,15.19
2022-07-31T03:45:09.846Z,15.14
2022-07-31T03:47:36.773Z,15.23
2022-07-31T03:50:03.955Z,15.20
2022-07-31T03:52:31.646Z,15.30
2022-07-31T03:54:58.383Z,15.19
2022-07-31T03:57:28.725Z,15.16
2022-07-31T03:59:59.973Z,15.24
2022-07-31T04:02:28.078Z,15.31
2022-07-31T04:04:55.172Z,15.20
2022-07-31T04:07:21.849Z,15.21
2022-07-31T04:09:48.569Z,15.36
2022-07-31T04:12:15.346Z,15.37
2022-07-31T04:14:42.022Z,15.35
2022-07-31T04:17:09.262Z,15.41
2022-07-31T04:19:36.152Z,15.45
2022-07-31T04:22:03.919Z,15.43
2022-07-31T04:24:30.965Z,15.44
2022-07-31T04:26:58.165Z,15.46
2022-07-31T04:29:25.051Z,15.51
2022-07-31T04:31:51.685Z,15.50
2022-07-31T04:34:18.340Z,15.62
2022-07-31T04:36:44.974Z,15.54
2022-07-31T04:39:11.670Z,15.53
2022-07-31T04:41:38.343Z,15.54
2022-07-31T04:44:05.083Z,15.50
2022-07-31T04:46:31.792Z,15.50
2022-07-31T04:48:58.457Z,15.75
2022-07-31T04:51:25.275Z,16.16
2022-07-31T04:53:52.078Z,15.95
2022-07-31T04:56:42.196Z,15.84
2022-07-31T04:59:20.336Z,15.78
2022-07-31T05:01:48.247Z,15.81
2022-07-31T05:04:16.267Z,15.95
2022-07-31T05:06:48.451Z,16.10
2022-07-31T05:09:19.262Z,16.09
2022-07-31T05:11:50.111Z,16.15
2022-07-31T05:14:18.671Z,16.18
2022-07-31T05:16:45.860Z,16.23
2022-07-31T05:19:14.805Z,16.20
2022-07-31T05:21:48.454Z,16.17
2022-07-31T05:24:33.618Z,16.14
2022-07-31T05:27:02.133Z,16.37
2022-07-31T05:29:29.414Z,16.37
2022-07-31T05:32:10.180Z,16.38
2022-07-31T05:34:37.095Z,16.45
2022-07-31T05:37:04.551Z,16.38
2022-07-31T05:39:31.535Z,16.55
2022-07-31T05:41:58.274Z,16.67
2022-07-31T05:44:25.159Z,16.70
2022-07-31T05:49:18.224Z,16.76
2022-07-31T05:51:46.874Z,16.85
2022-07-31T05:54:14.009Z,16.92
2022-07-31T05:56:40.840Z,17.11
2022-07-31T05:59:07.561Z,17.13
2022-07-31T06:01:34.442Z,17.03
2022-07-31T06:04:02.650Z,17.27
2022-07-31T06:06:29.556Z,17.25
2022-07-31T06:08:59.408Z,17.21
2022-07-31T06:11:30.248Z,17.32
2022-07-31T06:13:56.879Z,17.44
2022-07-31T06:16:23.711Z,17.56
2022-07-31T06:18:51.051Z,18.01
2022-07-31T06:23:43.317Z,18.26
2022-07-31T06:26:12.346Z,18.17
2022-07-31T06:28:49.037Z,18.63
2022-07-31T06:31:22.838Z,19.31
2022-07-31T06:33:51.011Z,19.24
2022-07-31T06:36:19.459Z,19.46
2022-07-31T06:38:46.394Z,19.54
2022-07-31T06:41:33.288Z,20.23
2022-07-31T06:44:00.077Z,20.27
2022-07-31T06:46:26.969Z,20.74
2022-07-31T06:48:53.766Z,20.92
2022-07-31T06:51:30.943Z,21.29
2022-07-31T06:53:59.262Z,21.49
2022-07-31T06:56:26.005Z,21.17
2022-07-31T06:58:55.277Z,21.23
2022-07-31T07:01:22.536Z,21.65
2022-07-31T07:03:49.361Z,21.62
2022-07-31T07:06:16.392Z,21.17
2022-07-31T07:08:42.990Z,21.72
2022-07-31T07:11:12.330Z,21.93
2022-07-31T07:13:45.681Z,21.99
2022-07-31T07:16:14.622Z,22.25
2022-07-31T07:18:41.713Z,22.40
2022-07-31T07:21:09.035Z,22.17
2022-07-31T07:23:35.927Z,22.35
2022-07-31T07:26:03.350Z,22.24
2022-07-31T07:28:31.308Z,22.97
2022-07-31T07:30:58.469Z,22.84
2022-07-31T07:33:41.488Z,21.87
2022-07-31T07:36:23.301Z,21.92
2022-07-31T07:38:53.683Z,21.96
2022-07-31T07:41:22.949Z,22.00
2022-07-31T07:43:52.463Z,21.86
2022-07-31T07:46:20.313Z,22.33
2022-07-31T07:48:47.065Z,22.84
2022-07-31T07:51:14.073Z,22.50
2022-07-31T07:53:41.011Z,22.27
2022-07-31T07:56:07.799Z,22.29
2022-07-31T07:58:34.691Z,22.48
2022-07-31T08:01:01.824Z,22.73
2022-07-31T08:03:48.492Z,22.92
2022-07-31T08:06:15.410Z,22.92
2022-07-31T08:08:42.981Z,22.60
2022-07-31T08:11:10.038Z,22.71
2022-07-31T08:13:39.849Z,23.16
2022-07-31T08:16:07.801Z,23.20
2022-07-31T08:18:34.660Z,22.71
2022-07-31T08:21:01.486Z,22.84
2022-07-31T08:23:28.330Z,22.95
2022-07-31T08:25:55.401Z,22.83
2022-07-31T08:28:25.859Z,23.22
2022-07-31T08:30:52.851Z,23.33
2022-07-31T08:33:19.852Z,23.28
2022-07-31T08:35:50.552Z,23.28
2022-07-31T08:38:20.875Z,23.44
2022-07-31T08:40:47.916Z,23.61
2022-07-31T08:44:00.480Z,23.48
2022-07-31T08:46:05.436Z,23.42
2022-07-31T08:48:33.448Z,23.64
2022-07-31T08:51:03.548Z,23.81
2022-07-31T08:53:33.086Z,23.70
2022-07-31T08:56:00.830Z,23.95
2022-07-31T08:58:27.658Z,23.79
2022-07-31T09:00:55.167Z,23.85
2022-07-31T09:03:21.991Z,24.02
2022-07-31T09:05:48.912Z,24.15
2022-07-31T09:08:15.725Z,23.76
2022-07-31T09:10:47.743Z,23.94
2022-07-31T09:13:18.387Z,23.90
2022-07-31T09:15:45.325Z,23.96
2022-07-31T09:18:22.299Z,24.58
2022-07-31T09:20:58.938Z,24.30
2022-07-31T09:23:28.047Z,23.77
2022-07-31T09:25:59.024Z,24.15
2022-07-31T09:28:39.951Z,24.59
2022-07-31T09:31:08.731Z,23.76
2022-07-31T09:33:45.224Z,24.48
2022-07-31T09:36:13.560Z,23.92
2022-07-31T09:38:42.524Z,23.77
2022-07-31T09:41:55.465Z,23.40
2022-07-31T09:44:10.590Z,23.60
2022-07-31T09:46:46.213Z,23.86
2022-07-31T09:49:13.402Z,23.88
2022-07-31T09:51:42.027Z,23.77
2022-07-31T09:54:20.780Z,23.87
2022-07-31T09:56:49.958Z,23.79
2022-07-31T09:59:17.348Z,24.06
2022-07-31T10:01:48.857Z,24.25
2022-07-31T10:04:20.334Z,24.14
2022-07-31T10:06:51.933Z,24.02
2022-07-31T10:09:20.590Z,24.35
2022-07-31T10:11:49.345Z,24.80
2022-07-31T10:14:21.521Z,24.92
2022-07-31T10:16:49.299Z,24.72
2022-07-31T10:19:16.475Z,24.73
2022-07-31T10:21:58.601Z,24.36
2022-07-31T10:24:28.501Z,24.96
2022-07-31T10:27:10.441Z,24.84
2022-07-31T10:29:39.599Z,24.59
2022-07-31T10:32:07.812Z,24.44
2022-07-31T10:34:35.085Z,24.50
2022-07-31T10:37:12.112Z,24.29
2022-07-31T10:40:00.230Z,24.18
2022-07-31T10:42:44.397Z,23.92
2022-07-31T10:45:14.212Z,24.20
2022-07-31T10:47:48.665Z,24.39
2022-07-31T10:50:24.166Z,24.51
2022-07-31T10:52:51.683Z,24.29
2022-07-31T10:55:22.552Z,24.02
2022-07-31T10:57:57.288Z,24.48
2022-07-31T11:00:28.269Z,24.30
2022-07-31T11:02:56.799Z,24.40
2022-07-31T11:05:24.659Z,25.07
2022-07-31T11:08:05.594Z,24.21
2022-07-31T11:10:34.290Z,24.12
2022-07-31T11:13:02.575Z,24.55
2022-07-31T11:15:29.559Z,24.23
2022-07-31T11:18:22.196Z,24.01
2022-07-31T11:20:47.080Z,24.10
2022-07-31T11:23:17.853Z,24.23
2022-07-31T11:25:46.364Z,24.77
2022-07-31T11:28:19.367Z,24.28
2022-07-31T11:30:53.438Z,24.09
2022-07-31T11:33:42.673Z,24.21
2022-07-31T11:36:14.373Z,24.45
2022-07-31T11:38:46.859Z,23.98
2022-07-31T11:41:15.128Z,24.12
2022-07-31T11:43:50.343Z,23.94
2022-07-31T11:46:26.108Z,23.97
2022-07-31T11:48:54.561Z,23.99
2022-07-31T11:51:21.951Z,24.44
2022-07-31T11:53:51.121Z,24.00
2022-07-31T11:56:25.042Z,23.73
2022-07-31T11:58:54.061Z,23.67
2022-07-31T12:01:27.948Z,23.59
2022-07-31T12:03:55.199Z,23.57
2022-07-31T12:06:22.429Z,23.48
2022-07-31T12:08:50.095Z,23.28
2022-07-31T12:11:20.521Z,23.34
2022-07-31T12:13:48.517Z,23.16
2022-07-31T12:16:16.301Z,23.21
2022-07-31T12:18:59.300Z,23.46
2022-07-31T12:21:40.274Z,23.37
2022-07-31T12:24:14.629Z,23.62
2022-07-31T12:26:44.521Z,24.07
2022-07-31T12:29:12.663Z,24.23
2022-07-31T12:31:51.361Z,24.15
2022-07-31T12:34:28.809Z,23.72
2022-07-31T12:36:59.912Z,23.77
2022-07-31T12:39:53.736Z,23.79
2022-07-31T12:42:30.738Z,23.88
2022-07-31T12:45:19.533Z,24.54
2022-07-31T12:47:52.134Z,24.81
2022-07-31T12:50:22.961Z,24.67
2022-07-31T12:52:49.740Z,24.34
2022-07-31T12:55:17.392Z,24.18
2022-07-31T12:57:51.914Z,24.12
2022-07-31T13:00:23.986Z,23.90
2022-07-31T13:02:54.667Z,23.76
2022-07-31T13:05:22.402Z,23.54
2022-07-31T13:07:49.939Z,23.70
2022-07-31T13:10:22.029Z,23.74
2022-07-31T13:12:51.396Z,23.80
2022-07-31T13:15:20.729Z,24.26
2022-07-31T13:17:50.712Z,24.71
2022-07-31T13:20:18.334Z,24.59
2022-07-31T13:22:45.186Z,24.93
2022-07-31T13:25:12.230Z,24.50
2022-07-31T13:27:39.643Z,24.56
2022-07-31T13:30:09.354Z,24.39
2022-07-31T13:32:36.112Z,24.41
2022-07-31T13:35:19.813Z,24.09
2022-07-31T13:37:50.250Z,24.05
2022-07-31T13:40:19.140Z,24.02
2022-07-31T13:42:45.940Z,23.98
2022-07-31T13:45:12.686Z,24.15
2022-07-31T13:47:50.698Z,24.12
2022-07-31T13:50:19.026Z,23.69
2022-07-31T13:52:45.901Z,23.63
2022-07-31T13:55:12.756Z,23.60
2022-07-31T13:57:39.539Z,23.62
2022-07-31T14:00:07.019Z,23.72
2022-07-31T14:02:33.875Z,23.73
2022-07-31T14:05:00.631Z,23.85
2022-07-31T14:07:48.228Z,23.90
2022-07-31T14:10:19.970Z,23.78
2022-07-31T14:12:47.359Z,23.68
2022-07-31T14:15:14.229Z,23.58
2022-07-31T14:17:41.024Z,23.49
2022-07-31T14:20:08.503Z,23.58
2022-07-31T14:22:35.518Z,23.59
2022-07-31T14:25:02.270Z,23.69
2022-07-31T14:27:29.085Z,23.66
2022-07-31T14:29:55.985Z,23.79
2022-07-31T14:32:22.878Z,23.81
2022-07-31T14:34:50.520Z,23.82
2022-07-31T14:37:17.456Z,23.63
2022-07-31T14:39:44.510Z,23.61
2022-07-31T14:42:12.154Z,23.67
2022-07-31T14:44:41.843Z,23.60
2022-07-31T14:47:10.207Z,23.63
2022-07-31T14:50:08.373Z,23.66
2022-07-31T14:52:24.163Z,23.58
2022-07-31T14:54:54.014Z,23.42
2022-07-31T14:57:22.404Z,23.50
2022-07-31T14:59:50.530Z,23.35
2022-07-31T15:02:22.270Z,23.73
2022-07-31T15:04:50.800Z,23.77
2022-07-31T15:07:34.702Z,23.55
2022-07-31T15:10:07.209Z,23.48
2022-07-31T15:12:34.225Z,23.59
2022-07-31T15:15:01.562Z,23.99
2022-07-31T15:17:28.699Z,24.29
2022-07-31T15:19:55.627Z,24.32
2022-07-31T15:22:22.483Z,24.21
2022-07-31T15:24:50.266Z,23.75
2022-07-31T15:27:18.631Z,23.67
2022-07-31T15:30:00.249Z,23.70
2022-07-31T15:32:32.601Z,23.42
2022-07-31T15:34:59.450Z,23.54
2022-07-31T15:37:26.174Z,23.61
2022-07-31T15:40:01.524Z,23.37
2022-07-31T15:42:38.555Z,23.37
2022-07-31T15:45:09.739Z,23.42
2022-07-31T15:47:36.583Z,23.16
2022-07-31T15:50:03.825Z,23.06
2022-07-31T15:52:30.602Z,23.05
2022-07-31T15:54:57.359Z,23.14
2022-07-31T15:57:24.841Z,22.99
2022-07-31T15:59:54.530Z,22.87
2022-07-31T16:02:22.412Z,22.85
2022-07-31T16:04:53.129Z,22.66
2022-07-31T16:08:31.638Z,22.69
2022-07-31T16:10:16.466Z,22.77
2022-07-31T16:12:47.679Z,22.82
2022-07-31T16:15:16.409Z,22.76
2022-07-31T16:17:43.979Z,22.60
2022-07-31T16:20:13.481Z,22.53
2022-07-31T16:23:01.229Z,22.52
2022-07-31T16:25:30.020Z,22.43
2022-07-31T16:27:59.153Z,22.49
2022-07-31T16:30:27.472Z,22.32
2022-07-31T16:35:21.814Z,22.32
2022-07-31T16:37:52.592Z,22.37
2022-07-31T16:40:29.271Z,22.37
2022-07-31T16:43:50.955Z,22.33
2022-07-31T16:45:53.656Z,22.31
2022-07-31T16:48:20.836Z,22.33
2022-07-31T16:50:48.304Z,22.25
2022-07-31T16:54:11.312Z,22.28
2022-07-31T16:56:07.732Z,22.23
2022-07-31T16:58:34.982Z,22.19
2022-07-31T17:01:04.328Z,22.13
2022-07-31T17:03:58.796Z,22.11
2022-07-31T17:06:18.429Z,22.06
2022-07-31T17:09:16.160Z,22.05
2022-07-31T17:11:46.294Z,21.93
2022-07-31T17:14:13.131Z,21.83
2022-07-31T17:16:44.871Z,21.65
2022-07-31T17:19:13.932Z,21.62
2022-07-31T17:21:44.437Z,21.66
2022-07-31T17:24:15.713Z,21.54
2022-07-31T17:26:43.726Z,21.55
2022-07-31T17:29:10.681Z,21.51
2022-07-31T17:31:37.530Z,21.49
2022-07-31T17:34:09.067Z,21.57
2022-07-31T17:36:36.661Z,21.60
2022-07-31T17:39:04.562Z,21.48
2022-07-31T17:41:31.481Z,21.40
2022-07-31T17:43:58.262Z,21.36
2022-07-31T17:46:34.976Z,21.34
2022-07-31T17:49:06.102Z,21.20
2022-07-31T17:51:33.294Z,21.30
2022-07-31T17:54:00.634Z,21.23
2022-07-31T17:56:27.562Z,21.16
2022-07-31T17:58:55.691Z,20.97
2022-07-31T18:01:26.945Z,20.76
2022-07-31T18:03:55.884Z,20.77
2022-07-31T18:06:22.774Z,20.74
2022-07-31T18:08:49.649Z,20.70
2022-07-31T18:11:16.689Z,20.76
2022-07-31T18:13:47.939Z,20.74
2022-07-31T18:16:15.470Z,20.78
2022-07-31T18:18:42.270Z,20.69
2022-07-31T18:21:09.259Z,20.72
2022-07-31T18:23:36.104Z,20.66
2022-07-31T18:26:03.941Z,20.59
2022-07-31T18:28:34.052Z,20.66
2022-07-31T18:31:02.013Z,20.60
2022-07-31T18:33:29.090Z,20.55
2022-07-31T18:35:55.871Z,20.43
2022-07-31T18:38:22.653Z,20.23
2022-07-31T18:40:49.519Z,20.24
2022-07-31T18:43:16.275Z,20.11
2022-07-31T18:45:43.471Z,20.06
2022-07-31T18:48:10.501Z,20.06
2022-07-31T18:51:00.504Z,19.89
2022-07-31T18:53:29.598Z,19.79
2022-07-31T18:55:57.977Z,19.49
2022-07-31T18:58:24.998Z,19.35
2022-07-31T19:00:55.274Z,19.26
2022-07-31T19:03:26.553Z,19.07
2022-07-31T19:05:54.613Z,18.92
2022-07-31T19:08:22.099Z,18.95
2022-07-31T19:10:53.718Z,19.18
2022-07-31T19:13:21.537Z,19.11
2022-07-31T19:15:49.325Z,18.84
2022-07-31T19:18:16.700Z,18.78
2022-07-31T19:21:00.065Z,18.76
2022-07-31T19:23:33.520Z,18.75
2022-07-31T19:26:03.828Z,18.81
2022-07-31T19:28:34.824Z,18.74
2022-07-31T19:31:01.735Z,18.73
2022-07-31T19:33:32.240Z,18.74
2022-07-31T19:36:02.198Z,18.70
2022-07-31T19:38:33.461Z,18.69
2022-07-31T19:41:00.475Z,18.74
2022-07-31T19:43:28.543Z,18.73
2022-07-31T19:46:09.662Z,18.80
2022-07-31T19:48:43.322Z,18.60
2022-07-31T19:51:11.171Z,18.65
2022-07-31T19:53:39.195Z,18.57
2022-07-31T19:56:06.516Z,18.61
2022-07-31T19:58:37.464Z,18.50
2022-07-31T20:01:05.518Z,18.47
2022-07-31T20:03:32.435Z,18.30
2022-07-31T20:05:59.506Z,18.18
2022-07-31T20:08:26.528Z,17.87
2022-07-31T20:10:59.561Z,18.00
2022-07-31T20:13:27.901Z,18.00
2022-07-31T20:15:55.301Z,18.04
2022-07-31T20:18:28.099Z,18.06
2022-07-31T20:20:59.982Z,18.12
2022-07-31T20:23:27.276Z,17.99
2022-07-31T20:25:54.320Z,17.94
2022-07-31T20:28:21.600Z,17.97
2022-07-31T20:30:48.602Z,17.88
2022-07-31T20:33:15.620Z,17.95
2022-07-31T20:35:49.034Z,17.93
2022-07-31T20:38:19.589Z,17.92
2022-07-31T20:40:53.707Z,17.94
2022-07-31T20:43:26.307Z,17.85
2022-07-31T20:45:54.002Z,17.92
2022-07-31T20:48:24.353Z,17.90
2022-07-31T20:50:51.764Z,17.93
2022-07-31T20:53:19.517Z,17.92
2022-07-31T20:55:49.422Z,17.96
2022-07-31T20:58:19.720Z,17.95
2022-07-31T21:00:47.629Z,17.82
2022-07-31T21:03:15.262Z,17.87
2022-07-31T21:05:41.993Z,17.79
2022-07-31T21:08:08.828Z,17.70
2022-07-31T21:10:36.095Z,17.77
2022-07-31T21:13:03.237Z,17.80
2022-07-31T21:15:42.957Z,17.71
2022-07-31T21:18:16.344Z,17.68
2022-07-31T21:20:51.644Z,17.56
2022-07-31T21:23:22.878Z,17.43
2022-07-31T21:25:54.267Z,17.70
2022-07-31T21:28:22.218Z,17.62
2022-07-31T21:30:49.687Z,17.58
2022-07-31T21:33:18.139Z,17.53
2022-07-31T21:35:45.955Z,17.63
2022-07-31T21:38:15.284Z,17.70
2022-07-31T21:40:42.770Z,17.60
2022-07-31T21:43:09.826Z,17.59
2022-07-31T21:45:41.219Z,17.71
2022-07-31T21:48:22.884Z,17.56
2022-07-31T21:50:49.813Z,17.64
2022-07-31T21:53:16.530Z,17.62
2022-07-31T21:55:43.273Z,17.54
2022-07-31T21:58:10.126Z,17.52
2022-07-31T22:00:37.134Z,17.52
2022-07-31T22:03:04.821Z,17.59
2022-07-31T22:05:50.131Z,17.56
2022-07-31T22:08:16.819Z,17.56
2022-07-31T22:10:43.930Z,17.53
2022-07-31T22:13:10.605Z,17.57
2022-07-31T22:15:55.457Z,17.45
2022-07-31T22:18:26.268Z,17.51
2022-07-31T22:20:53.812Z,17.47
2022-07-31T22:23:20.974Z,17.45
2022-07-31T22:25:49.165Z,17.48
2022-07-31T22:28:17.846Z,17.52
2022-07-31T22:30:44.762Z,17.45
2022-07-31T22:33:11.532Z,17.48
2022-07-31T22:35:40.470Z,17.45
2022-07-31T22:38:07.967Z,17.45
2022-07-31T22:40:34.952Z,17.44
2022-07-31T22:43:02.527Z,17.49
2022-07-31T22:45:29.997Z,17.43
2022-07-31T22:47:57.858Z,17.40
2022-07-31T22:50:24.957Z,17.35
2022-07-31T22:52:58.261Z,17.28
2022-07-31T22:55:24.929Z,17.18
2022-07-31T22:57:51.556Z,17.27
2022-07-31T23:00:18.398Z,17.30
2022-07-31T23:02:45.865Z,17.29
2022-07-31T23:05:12.796Z,17.29
2022-07-31T23:07:39.497Z,17.28
2022-07-31T23:10:07.594Z,17.07
2022-07-31T23:12:34.277Z,17.07
2022-07-31T23:15:00.924Z,17.15
2022-07-31T23:17:27.588Z,17.24
2022-07-31T23:19:54.818Z,17.24
2022-07-31T23:22:33.482Z,17.29
2022-07-31T23:25:08.861Z,17.31
2022-07-31T23:27:35.793Z,17.35
2022-07-31T23:30:02.450Z,17.29
2022-07-31T23:32:29.250Z,17.39
2022-07-31T23:34:55.930Z,17.30
2022-07-31T23:37:22.560Z,17.31
2022-07-31T23:39:49.210Z,17.23
2022-07-31T23:42:34.689Z,17.19
2022-07-31T23:45:01.407Z,17.10
2022-07-31T23:47:44.926Z,17.11
2022-07-31T23:50:14.309Z,17.14
2022-07-31T23:52:41.829Z,17.12
2022-07-31T23:55:09.167Z,17.01
2022-07-31T23:57:36.183Z,17.02
